Caldera, Chile
Current Conditions -  °F | °C
As of 1:00 AM on Thursday 27 Nov 2014 (Local Time) from SCAT Reporting Station
NA  
Wind Chill: 55°   Ceiling: NA
Heat Index: 55°   Visibility: 6mi
Dew Point: 50°   Wind: 5mph
Humidity: 82%   Direction: 160°SSE
Pressure: 30.03"   Gusts: NA
Location:  27.08°S, 70.81°W
Report Text: SCAT 270500Z AUTO 16004KT 120V190 9999 // ///011 13/10 Q1017
Loading
Personal Weather Stations






























Interactive Weather Map New forecast layout! Learn more

10-Day Weather Forecast

Advertisements
Track Severe Weather on mobile